createdAt,value
2022-10-22T00:01:16.192Z,13.72
2022-10-22T00:03:44.012Z,13.71
2022-10-22T00:06:11.980Z,13.71
2022-10-22T00:08:40.038Z,13.69
2022-10-22T00:11:14.201Z,13.69
2022-10-22T00:13:42.377Z,13.68
2022-10-22T00:16:10.307Z,13.68
2022-10-22T00:18:39.133Z,13.68
2022-10-22T00:21:07.809Z,13.69
2022-10-22T00:23:35.585Z,13.70
2022-10-22T00:26:03.420Z,13.70
2022-10-22T00:28:31.254Z,13.71
2022-10-22T00:31:00.468Z,13.71
2022-10-22T00:33:29.478Z,13.71
2022-10-22T00:35:57.691Z,13.69
2022-10-22T00:38:25.919Z,13.69
2022-10-22T00:40:53.689Z,13.68
2022-10-22T00:43:22.193Z,13.68
2022-10-22T00:45:49.885Z,13.69
2022-10-22T00:48:26.112Z,13.69
2022-10-22T00:51:01.569Z,13.69
2022-10-22T00:53:38.433Z,13.69
2022-10-22T00:56:06.825Z,13.69
2022-10-22T00:58:37.813Z,13.69
2022-10-22T01:01:06.655Z,13.70
2022-10-22T01:03:34.518Z,13.73
2022-10-22T01:06:05.345Z,13.76
2022-10-22T01:08:39.118Z,13.78
2022-10-22T01:11:21.664Z,13.80
2022-10-22T01:14:06.276Z,13.81
2022-10-22T01:17:00.368Z,13.83
2022-10-22T01:19:42.012Z,13.86
2022-10-22T01:22:20.840Z,13.87
2022-10-22T01:25:07.632Z,13.89
2022-10-22T01:28:15.847Z,13.90
2022-10-22T01:30:45.388Z,13.93
2022-10-22T01:33:16.123Z,13.94
2022-10-22T01:35:45.367Z,13.95
2022-10-22T01:38:17.938Z,13.95
2022-10-22T01:40:46.651Z,13.96
2022-10-22T01:43:15.251Z,13.97
2022-10-22T01:45:49.270Z,13.96
2022-10-22T01:48:44.731Z,13.94
2022-10-22T01:51:59.904Z,13.93
2022-10-22T01:54:48.045Z,13.92
2022-10-22T01:57:40.095Z,13.93
2022-10-22T02:00:10.341Z,13.94
2022-10-22T02:03:10.900Z,13.95
2022-10-22T02:05:48.500Z,13.94
2022-10-22T02:08:20.970Z,13.92
2022-10-22T02:10:49.832Z,13.91
2022-10-22T02:13:24.398Z,13.90
2022-10-22T02:15:53.663Z,13.89
2022-10-22T02:18:25.670Z,13.89
2022-10-22T02:20:53.806Z,13.88
2022-10-22T02:23:22.190Z,13.89
2022-10-22T02:25:57.971Z,13.89
2022-10-22T02:28:32.920Z,13.90
2022-10-22T02:31:07.595Z,13.90
2022-10-22T02:33:42.719Z,13.90
2022-10-22T02:36:10.855Z,13.90
2022-10-22T02:38:39.416Z,13.91
2022-10-22T02:41:07.199Z,13.91
2022-10-22T02:43:50.457Z,13.92
2022-10-22T02:46:18.300Z,13.92
2022-10-22T02:48:46.045Z,13.91
2022-10-22T02:51:13.849Z,13.90
2022-10-22T02:53:41.800Z,13.90
2022-10-22T02:56:09.991Z,13.90
2022-10-22T02:58:37.717Z,13.90
2022-10-22T03:01:06.048Z,13.90
2022-10-22T03:03:33.891Z,13.89
2022-10-22T03:06:01.688Z,13.89
2022-10-22T03:08:29.523Z,13.88
2022-10-22T03:10:57.315Z,13.88
2022-10-22T03:13:25.140Z,13.88
2022-10-22T03:15:52.941Z,13.88
2022-10-22T03:18:20.739Z,13.88
2022-10-22T03:20:48.640Z,13.88
2022-10-22T03:23:18.872Z,13.89
2022-10-22T03:25:48.139Z,13.89
2022-10-22T03:28:17.393Z,13.89
2022-10-22T03:30:45.134Z,13.89
2022-10-22T03:33:12.960Z,13.88
2022-10-22T03:35:45.011Z,13.88
2022-10-22T03:38:13.845Z,13.88
2022-10-22T03:40:42.855Z,13.89
2022-10-22T03:43:10.643Z,13.89
2022-10-22T03:48:10.854Z,13.88
2022-10-22T03:50:38.598Z,13.87
2022-10-22T03:53:07.278Z,13.87
2022-10-22T03:55:35.035Z,13.87
2022-10-22T03:58:02.772Z,13.86
2022-10-22T04:00:30.595Z,13.86
2022-10-22T04:02:58.419Z,13.87
2022-10-22T04:05:26.200Z,13.87
2022-10-22T04:07:54.048Z,13.87
2022-10-22T04:10:21.744Z,13.87
2022-10-22T04:12:49.681Z,13.86
2022-10-22T04:15:18.029Z,13.87
2022-10-22T04:17:45.782Z,13.87
2022-10-22T04:20:13.545Z,13.88
2022-10-22T04:22:41.290Z,13.89
2022-10-22T04:25:09.653Z,13.92
2022-10-22T04:27:37.750Z,13.93
2022-10-22T04:30:06.910Z,13.95
2022-10-22T04:32:34.767Z,13.97
2022-10-22T04:35:02.859Z,13.99
2022-10-22T04:37:30.633Z,14.01
2022-10-22T04:39:58.788Z,14.01
2022-10-22T04:42:26.824Z,13.98
2022-10-22T04:44:54.622Z,13.96
2022-10-22T04:47:22.530Z,13.94
2022-10-22T04:49:50.345Z,13.93
2022-10-22T04:52:18.064Z,13.92
2022-10-22T04:54:47.056Z,13.90
2022-10-22T04:57:14.826Z,13.89
2022-10-22T04:59:42.595Z,13.87
2022-10-22T05:02:10.312Z,13.87
2022-10-22T05:04:38.017Z,13.89
2022-10-22T05:07:05.874Z,13.89
2022-10-22T05:09:33.553Z,13.91
2022-10-22T05:12:01.612Z,13.91
2022-10-22T05:14:29.432Z,13.91
2022-10-22T05:16:57.254Z,13.92
2022-10-22T05:19:31.067Z,13.92
2022-10-22T05:22:02.166Z,13.93
2022-10-22T05:24:31.400Z,13.93
2022-10-22T05:27:04.230Z,13.93
2022-10-22T05:29:32.000Z,13.93
2022-10-22T05:31:59.921Z,13.93
2022-10-22T05:34:27.821Z,13.95
2022-10-22T05:36:55.786Z,13.96
2022-10-22T05:39:23.648Z,13.96
2022-10-22T05:41:51.663Z,13.97
2022-10-22T05:44:19.831Z,13.98
2022-10-22T05:46:47.698Z,14.00
2022-10-22T05:49:16.266Z,14.00
2022-10-22T05:51:44.083Z,14.01
2022-10-22T05:54:17.107Z,14.02
2022-10-22T05:56:45.062Z,14.03
2022-10-22T05:59:13.036Z,14.04
2022-10-22T06:01:41.415Z,14.05
2022-10-22T06:04:12.253Z,14.06
2022-10-22T06:06:44.796Z,14.08
2022-10-22T06:09:24.537Z,14.09
2022-10-22T06:11:53.066Z,14.10
2022-10-22T06:14:21.984Z,14.12
2022-10-22T06:16:50.236Z,14.14
2022-10-22T06:19:31.808Z,14.15
2022-10-22T06:21:59.890Z,14.15
2022-10-22T06:24:35.570Z,14.16
2022-10-22T06:27:03.818Z,14.18
2022-10-22T06:29:31.914Z,14.20
2022-10-22T06:32:01.031Z,14.21
2022-10-22T06:34:28.823Z,14.22
2022-10-22T06:36:56.652Z,14.24
2022-10-22T06:39:27.653Z,14.27
2022-10-22T06:41:55.455Z,14.28
2022-10-22T06:44:23.329Z,14.30
2022-10-22T06:46:53.919Z,14.32
2022-10-22T06:49:22.178Z,14.32
2022-10-22T06:51:54.627Z,14.33
2022-10-22T06:54:23.433Z,14.35
2022-10-22T06:56:51.380Z,14.37
2022-10-22T06:59:20.631Z,14.38
2022-10-22T07:01:48.670Z,14.39
2022-10-22T07:04:16.612Z,14.41
2022-10-22T07:06:44.582Z,14.42
2022-10-22T07:09:12.574Z,14.43
2022-10-22T07:11:45.679Z,14.45
2022-10-22T07:14:14.787Z,14.48
2022-10-22T07:16:43.262Z,14.50
2022-10-22T07:19:11.662Z,14.52
2022-10-22T07:21:39.844Z,14.54
2022-10-22T07:24:08.219Z,14.56
2022-10-22T07:26:37.021Z,14.58
2022-10-22T07:29:05.382Z,14.60
2022-10-22T07:31:33.182Z,14.61
2022-10-22T07:34:00.936Z,14.63
2022-10-22T07:36:28.741Z,14.65
2022-10-22T07:38:59.421Z,14.66
2022-10-22T07:41:29.813Z,14.68
2022-10-22T07:43:58.314Z,14.69
2022-10-22T07:46:27.009Z,14.70
2022-10-22T07:48:55.118Z,14.71
2022-10-22T07:51:23.450Z,14.72
2022-10-22T07:53:51.512Z,14.73
2022-10-22T07:56:26.788Z,14.74
2022-10-22T07:58:54.608Z,14.75
2022-10-22T08:01:22.549Z,14.76
2022-10-22T08:03:50.612Z,14.79
2022-10-22T08:06:18.537Z,14.81
2022-10-22T08:08:46.635Z,14.82
2022-10-22T08:11:14.835Z,14.85
2022-10-22T08:13:45.521Z,14.86
2022-10-22T08:16:14.815Z,14.88
2022-10-22T08:18:43.018Z,14.91
2022-10-22T08:21:15.683Z,14.94
2022-10-22T08:23:44.157Z,14.98
2022-10-22T08:26:12.155Z,15.01
2022-10-22T08:28:40.002Z,15.04
2022-10-22T08:31:08.998Z,15.07
2022-10-22T08:33:38.872Z,15.11
2022-10-22T08:36:07.884Z,15.15
2022-10-22T08:38:36.137Z,15.18
2022-10-22T08:41:09.102Z,15.21
2022-10-22T08:44:56.035Z,15.25
2022-10-22T08:47:49.483Z,15.29
2022-10-22T08:50:24.416Z,15.32
2022-10-22T08:52:56.466Z,15.36
2022-10-22T08:55:25.330Z,15.40
2022-10-22T08:58:20.350Z,15.44
2022-10-22T09:00:59.770Z,15.50
2022-10-22T09:03:30.590Z,15.58
2022-10-22T09:06:11.989Z,15.66
2022-10-22T09:08:42.869Z,15.71
2022-10-22T09:11:13.649Z,15.75
2022-10-22T09:13:43.997Z,15.81
2022-10-22T09:16:36.558Z,15.85
2022-10-22T09:19:16.486Z,15.89
2022-10-22T09:22:21.954Z,15.92
2022-10-22T09:24:58.252Z,15.95
2022-10-22T09:33:33.895Z,15.72
2022-10-22T09:36:03.770Z,15.75
2022-10-22T09:38:56.089Z,15.79
2022-10-22T09:41:30.118Z,15.82
2022-10-22T09:43:59.437Z,15.83
2022-10-22T09:46:30.518Z,15.83
2022-10-22T09:49:09.643Z,15.83
2022-10-22T09:52:00.731Z,15.82
2022-10-22T09:54:40.381Z,15.82
2022-10-22T09:57:22.229Z,15.81
2022-10-22T09:59:51.664Z,15.79
2022-10-22T10:02:39.220Z,15.78
2022-10-22T10:05:08.623Z,15.77
2022-10-22T10:07:37.249Z,15.76
2022-10-22T10:10:36.218Z,15.76
2022-10-22T10:13:49.228Z,15.75
2022-10-22T10:16:45.568Z,15.74
2022-10-22T10:20:03.703Z,15.75
2022-10-22T10:22:50.038Z,15.75
2022-10-22T10:25:36.256Z,15.75
2022-10-22T10:28:57.315Z,15.77
2022-10-22T10:31:49.622Z,15.78
2022-10-22T10:35:03.656Z,15.81
2022-10-22T10:37:40.716Z,15.82
2022-10-22T10:40:44.083Z,15.83
2022-10-22T10:43:44.131Z,15.85
2022-10-22T10:46:21.290Z,15.88
2022-10-22T10:48:53.932Z,15.90
2022-10-22T10:52:05.787Z,15.91
2022-10-22T10:54:55.364Z,15.93
2022-10-22T10:57:58.325Z,15.94
2022-10-22T11:00:28.089Z,15.95
2022-10-22T11:03:32.081Z,15.96
2022-10-22T11:06:25.660Z,15.92
2022-10-22T11:09:05.930Z,15.92
2022-10-22T11:11:44.670Z,15.91
2022-10-22T11:14:43.035Z,15.91
2022-10-22T11:17:15.157Z,15.89
2022-10-22T11:20:21.560Z,15.87
2022-10-22T11:23:23.301Z,15.83
2022-10-22T11:25:51.737Z,15.79
2022-10-22T11:28:29.944Z,15.76
2022-10-22T11:31:16.324Z,15.73
2022-10-22T11:34:09.795Z,15.70
2022-10-22T11:36:50.108Z,15.67
2022-10-22T11:39:59.904Z,15.67
2022-10-22T11:42:40.473Z,15.66
2022-10-22T11:45:14.548Z,15.64
2022-10-22T11:48:10.381Z,15.62
2022-10-22T11:50:41.327Z,15.60
2022-10-22T11:53:15.130Z,15.59
2022-10-22T11:56:07.734Z,15.58
2022-10-22T11:58:39.608Z,15.55
2022-10-22T12:01:07.383Z,15.52
2022-10-22T12:03:35.093Z,15.51
2022-10-22T12:06:18.445Z,15.52
2022-10-22T12:08:53.608Z,15.55
2022-10-22T12:11:47.981Z,15.59
2022-10-22T12:14:40.865Z,15.59
2022-10-22T12:17:14.585Z,15.61
2022-10-22T12:20:05.114Z,15.63
2022-10-22T12:22:40.183Z,15.62
2022-10-22T12:25:26.824Z,15.61
2022-10-22T12:28:01.079Z,15.59
2022-10-22T12:30:34.992Z,15.57
2022-10-22T12:33:19.294Z,15.56
2022-10-22T12:35:49.317Z,15.55
2022-10-22T12:38:27.373Z,15.56
2022-10-22T12:40:56.966Z,15.54
2022-10-22T12:43:31.957Z,15.54
2022-10-22T12:46:00.244Z,15.52
2022-10-22T12:48:39.223Z,15.52
2022-10-22T12:51:11.846Z,15.51
2022-10-22T12:53:47.407Z,15.50
2022-10-22T12:56:24.494Z,15.49
2022-10-22T12:59:15.977Z,15.49
2022-10-22T13:01:44.113Z,15.48
2022-10-22T13:04:35.706Z,15.47
2022-10-22T13:07:24.896Z,15.47
2022-10-22T13:10:02.646Z,15.46
2022-10-22T13:12:39.461Z,15.47
2022-10-22T13:15:36.934Z,15.47
2022-10-22T13:18:16.906Z,15.46
2022-10-22T13:20:56.708Z,15.48
2022-10-22T13:23:28.750Z,15.49
2022-10-22T13:26:10.391Z,15.49
2022-10-22T13:28:41.522Z,15.48
2022-10-22T13:31:22.140Z,15.48
2022-10-22T13:34:08.408Z,15.48
2022-10-22T13:36:39.173Z,15.48
2022-10-22T13:39:21.917Z,15.49
2022-10-22T13:41:50.835Z,15.47
2022-10-22T13:44:19.955Z,15.46
2022-10-22T13:46:48.958Z,15.45
2022-10-22T13:49:19.530Z,15.45
2022-10-22T13:51:47.626Z,15.45
2022-10-22T13:54:20.202Z,15.45
2022-10-22T13:56:48.632Z,15.45
2022-10-22T13:59:18.514Z,15.44
2022-10-22T14:01:49.310Z,15.42
2022-10-22T14:04:17.304Z,15.40
2022-10-22T14:06:45.342Z,15.38
2022-10-22T14:09:16.202Z,15.36
2022-10-22T14:11:45.558Z,15.36
2022-10-22T14:14:17.307Z,15.35
2022-10-22T14:16:45.642Z,15.34
2022-10-22T14:19:17.905Z,15.29
2022-10-22T14:21:45.902Z,15.24
2022-10-22T14:24:13.835Z,15.20
2022-10-22T14:26:41.983Z,15.17
2022-10-22T14:29:11.007Z,15.15
2022-10-22T14:31:49.876Z,15.13
2022-10-22T14:34:17.918Z,15.10
2022-10-22T14:36:45.799Z,15.08
2022-10-22T14:39:14.212Z,15.07
2022-10-22T14:41:43.067Z,15.06
2022-10-22T14:44:14.901Z,15.05
2022-10-22T14:46:44.408Z,15.03
2022-10-22T14:49:15.673Z,15.01
2022-10-22T14:51:43.501Z,14.99
2022-10-22T14:54:11.241Z,14.98
2022-10-22T14:56:38.964Z,14.95
2022-10-22T14:59:06.746Z,14.95
2022-10-22T15:01:34.506Z,14.94
2022-10-22T15:04:02.281Z,14.92
2022-10-22T15:06:30.080Z,14.91
2022-10-22T15:08:57.881Z,14.90
2022-10-22T15:11:25.659Z,14.90
2022-10-22T15:13:53.487Z,14.90
2022-10-22T15:16:21.841Z,14.90
2022-10-22T15:18:49.710Z,14.91
2022-10-22T15:21:21.820Z,14.91
2022-10-22T15:23:50.028Z,14.91
2022-10-22T15:26:18.360Z,14.91
2022-10-22T15:28:46.353Z,14.91
2022-10-22T15:31:15.199Z,14.90
2022-10-22T15:33:43.877Z,14.90
2022-10-22T15:36:15.946Z,14.90
2022-10-22T15:38:43.971Z,14.89
2022-10-22T15:41:12.609Z,14.91
2022-10-22T15:43:40.415Z,14.92
2022-10-22T15:46:16.257Z,14.91
2022-10-22T15:48:44.477Z,14.90
2022-10-22T15:51:16.058Z,14.90
2022-10-22T15:53:44.243Z,14.90
2022-10-22T15:56:12.154Z,14.90
2022-10-22T15:58:40.095Z,14.90
2022-10-22T16:01:11.959Z,14.91
2022-10-22T16:03:42.038Z,14.91
2022-10-22T16:06:09.983Z,14.90
2022-10-22T16:08:38.675Z,14.92
2022-10-22T16:11:06.484Z,15.02
2022-10-22T16:13:36.905Z,15.82
2022-10-22T16:16:08.217Z,16.03
2022-10-22T16:18:36.039Z,15.95
2022-10-22T16:21:04.184Z,16.12
2022-10-22T16:23:31.949Z,16.65
2022-10-22T16:26:02.680Z,17.23
2022-10-22T16:28:30.684Z,17.51
2022-10-22T16:31:05.990Z,17.90
2022-10-22T16:33:41.515Z,18.60
2022-10-22T16:36:18.117Z,18.38
2022-10-22T16:38:47.388Z,18.04
2022-10-22T16:41:20.385Z,17.94
2022-10-22T16:43:50.456Z,17.70
2022-10-22T16:46:21.626Z,17.48
2022-10-22T16:48:52.394Z,17.32
2022-10-22T16:51:24.104Z,17.18
2022-10-22T16:53:53.287Z,17.11
2022-10-22T16:56:21.823Z,17.10
2022-10-22T16:58:55.905Z,17.08
2022-10-22T17:01:27.078Z,17.69
2022-10-22T17:03:55.811Z,18.26
2022-10-22T17:06:25.384Z,17.94
2022-10-22T17:08:53.769Z,18.30
2022-10-22T17:11:24.532Z,19.28
2022-10-22T17:13:54.309Z,19.22
2022-10-22T17:16:24.991Z,18.82
2022-10-22T17:18:56.378Z,18.39
2022-10-22T17:21:24.695Z,18.01
2022-10-22T17:23:57.322Z,18.56
2022-10-22T17:26:27.026Z,19.66
2022-10-22T17:28:55.358Z,19.90
2022-10-22T17:31:38.147Z,19.56
2022-10-22T17:34:08.203Z,19.12
2022-10-22T17:37:58.904Z,18.59
2022-10-22T17:40:27.140Z,18.37
2022-10-22T17:42:55.210Z,18.22
2022-10-22T17:45:24.180Z,18.02
2022-10-22T17:47:52.346Z,17.88
2022-10-22T17:50:20.342Z,17.74
2022-10-22T17:52:51.774Z,17.56
2022-10-22T17:55:20.600Z,17.37
2022-10-22T17:57:50.249Z,17.18
2022-10-22T18:02:52.679Z,16.85
2022-10-22T18:05:22.352Z,16.76
2022-10-22T18:07:54.325Z,16.68
2022-10-22T18:10:23.358Z,16.63
2022-10-22T18:12:52.219Z,16.52
2022-10-22T18:15:21.691Z,16.38
2022-10-22T18:17:50.537Z,16.26
2022-10-22T18:20:18.619Z,16.16
2022-10-22T18:22:46.742Z,16.09
2022-10-22T18:25:14.873Z,16.02
2022-10-22T18:27:43.280Z,16.02
2022-10-22T18:30:13.993Z,16.09
2022-10-22T18:32:41.894Z,16.03
2022-10-22T18:35:09.776Z,15.97
2022-10-22T18:37:39.752Z,15.90
2022-10-22T18:40:13.692Z,15.88
2022-10-22T18:42:42.982Z,15.88
2022-10-22T18:45:12.200Z,15.84
2022-10-22T18:47:41.799Z,15.80
2022-10-22T18:50:10.214Z,15.76
2022-10-22T18:52:38.649Z,15.73
2022-10-22T18:55:07.383Z,15.71
2022-10-22T18:57:35.314Z,15.70
2022-10-22T19:00:08.616Z,15.67
2022-10-22T19:02:41.020Z,15.65
2022-10-22T19:05:12.286Z,15.63
2022-10-22T19:07:41.412Z,15.61
2022-10-22T19:10:09.893Z,15.60
2022-10-22T19:12:37.907Z,15.60
2022-10-22T19:15:06.864Z,15.58
2022-10-22T19:17:35.113Z,15.57
2022-10-22T19:20:04.008Z,15.55
2022-10-22T19:22:32.454Z,15.54
2022-10-22T19:25:00.331Z,15.52
2022-10-22T19:27:28.299Z,15.51
2022-10-22T19:29:56.272Z,15.49
2022-10-22T19:32:26.307Z,15.48
2022-10-22T19:34:57.315Z,15.46
2022-10-22T19:37:25.255Z,15.45
2022-10-22T19:39:53.043Z,15.43
2022-10-22T19:42:21.005Z,15.40
2022-10-22T19:44:49.106Z,15.39
2022-10-22T19:47:18.351Z,15.37
2022-10-22T19:49:46.409Z,15.35
2022-10-22T19:52:15.057Z,15.33
2022-10-22T19:54:45.969Z,15.31
2022-10-22T19:57:15.911Z,15.31
2022-10-22T19:59:44.549Z,15.32
2022-10-22T20:02:18.028Z,15.31
2022-10-22T20:04:49.862Z,15.28
2022-10-22T20:07:18.391Z,15.28
2022-10-22T20:09:46.498Z,15.24
2022-10-22T20:12:17.139Z,15.21
2022-10-22T20:14:44.953Z,15.17
2022-10-22T20:17:12.956Z,15.14
2022-10-22T20:19:43.314Z,15.20
2022-10-22T20:22:14.980Z,15.25
2022-10-22T20:24:46.314Z,15.27
2022-10-22T20:27:21.561Z,15.29
2022-10-22T20:29:49.650Z,15.30
2022-10-22T20:32:17.617Z,15.30
2022-10-22T20:34:45.611Z,15.32
2022-10-22T20:37:13.825Z,15.34
2022-10-22T20:39:43.337Z,15.36
2022-10-22T20:42:11.694Z,15.36
2022-10-22T20:44:40.546Z,15.36
2022-10-22T20:47:09.617Z,15.34
2022-10-22T20:49:37.839Z,15.33
2022-10-22T20:52:05.988Z,15.33
2022-10-22T20:54:33.811Z,15.32
2022-10-22T20:57:01.724Z,15.32
2022-10-22T20:59:33.370Z,15.32
2022-10-22T21:02:03.197Z,15.31
2022-10-22T21:04:32.116Z,15.30
2022-10-22T21:07:00.048Z,15.29
2022-10-22T21:09:28.281Z,15.30
2022-10-22T21:11:57.116Z,15.29
2022-10-22T21:14:26.797Z,15.30
2022-10-22T21:16:56.793Z,15.30
2022-10-22T21:26:27.372Z,15.28
2022-10-22T21:32:00.733Z,15.29
2022-10-22T21:34:28.702Z,15.29
2022-10-22T21:36:56.592Z,15.28
2022-10-22T21:39:24.599Z,15.28
2022-10-22T21:41:52.554Z,15.27
2022-10-22T21:44:20.435Z,15.26
2022-10-22T21:46:48.397Z,15.25
2022-10-22T21:49:18.349Z,15.25
2022-10-22T21:51:46.331Z,15.25
2022-10-22T21:54:14.353Z,15.24
2022-10-22T21:56:42.497Z,15.23
2022-10-22T21:59:10.456Z,15.23
2022-10-22T22:01:38.474Z,15.24
2022-10-22T22:04:06.433Z,15.25
2022-10-22T22:06:35.325Z,15.26
2022-10-22T22:09:05.270Z,15.25
2022-10-22T22:11:33.868Z,15.25
2022-10-22T22:14:08.097Z,15.26
2022-10-22T22:16:36.485Z,15.27
2022-10-22T22:19:08.534Z,15.28
2022-10-22T22:21:39.543Z,15.30
2022-10-22T22:24:09.413Z,15.31
2022-10-22T22:26:39.634Z,15.32
2022-10-22T22:29:07.780Z,15.34
2022-10-22T22:31:37.506Z,15.35
2022-10-22T22:34:12.843Z,15.38
2022-10-22T22:36:45.560Z,15.38
2022-10-22T22:39:17.472Z,15.38
2022-10-22T22:41:46.728Z,15.39
2022-10-22T22:44:15.123Z,15.39
2022-10-22T22:46:43.661Z,15.39
2022-10-22T22:49:13.892Z,15.40
2022-10-22T22:51:43.679Z,15.40
2022-10-22T22:54:11.867Z,15.41
2022-10-22T22:56:40.506Z,15.42
2022-10-22T22:59:08.456Z,15.42
2022-10-22T23:01:38.543Z,15.41
2022-10-22T23:04:22.797Z,15.40
2022-10-22T23:06:51.815Z,15.40
2022-10-22T23:11:53.999Z,15.39
2022-10-22T23:14:21.909Z,15.39
2022-10-22T23:16:52.519Z,15.38
2022-10-22T23:19:22.776Z,15.37
2022-10-22T23:21:54.473Z,15.37
2022-10-22T23:24:26.754Z,15.37
2022-10-22T23:26:56.621Z,15.37
2022-10-22T23:29:28.368Z,15.36
2022-10-22T23:32:00.342Z,15.35
2022-10-22T23:34:29.415Z,15.36
2022-10-22T23:36:58.455Z,15.35
2022-10-22T23:39:28.802Z,15.36
2022-10-22T23:41:56.894Z,15.37
2022-10-22T23:44:25.458Z,15.37
2022-10-22T23:46:53.485Z,15.37
2022-10-22T23:49:21.659Z,15.37
2022-10-22T23:51:49.514Z,15.38
2022-10-22T23:54:18.723Z,15.37
2022-10-22T23:56:47.411Z,15.35
2022-10-22T23:59:15.942Z,15.34
